Terminal Aerodrome Forecast
Issued by NWS Knoxville/Tri Cities, TN

Home | Current Version | Previous Version | Text Only | Print | Product List | Glossary On
Versions: 1 2 3 4 5 6 7 8 9 10 11 12 13
000
FTUS44 KMRX 241130
TAFCHA
TAF
KCHA 241130Z 2412/2512 VRB03KT P6SM SCT040 BKN070
     FM241700 18005KT P6SM SCT050 BKN200
     FM250100 VRB02KT P6SM FEW060 BKN150
     FM250900 00000KT P6SM BKN060=

USA.gov is the U.S. government's official web portal to all federal, state and local government web resources and services.